sensor_id;sensor_type;location;lat;lon;timestamp;P1;durP1;ratioP1;P2;durP2;ratioP2
67749;SDS011;54550;48.838;8.828;2022-12-18T00:01:27;56.97;;;24.80;;
67749;SDS011;54550;48.838;8.828;2022-12-18T00:04:04;62.35;;;22.67;;
67749;SDS011;54550;48.838;8.828;2022-12-18T00:06:31;47.70;;;22.05;;
67749;SDS011;54550;48.838;8.828;2022-12-18T00:08:58;71.70;;;26.33;;
67749;SDS011;54550;48.838;8.828;2022-12-18T00:11:25;50.50;;;22.55;;
67749;SDS011;54550;48.838;8.828;2022-12-18T00:13:54;80.82;;;28.88;;
67749;SDS011;54550;48.838;8.828;2022-12-18T00:16:21;59.83;;;26.35;;
67749;SDS011;54550;48.838;8.828;2022-12-18T00:18:50;54.28;;;23.42;;
67749;SDS011;54550;48.838;8.828;2022-12-18T00:21:20;58.00;;;23.42;;
67749;SDS011;54550;48.838;8.828;2022-12-18T00:23:46;74.40;;;26.02;;
67749;SDS011;54550;48.838;8.828;2022-12-18T00:26:14;57.95;;;22.33;;
67749;SDS011;54550;48.838;8.828;2022-12-18T00:28:42;47.95;;;22.70;;
67749;SDS011;54550;48.838;8.828;2022-12-18T00:31:09;60.08;;;24.52;;
67749;SDS011;54550;48.838;8.828;2022-12-18T00:33:36;67.10;;;27.08;;
67749;SDS011;54550;48.838;8.828;2022-12-18T00:36:06;62.77;;;24.63;;
67749;SDS011;54550;48.838;8.828;2022-12-18T00:38:34;54.47;;;21.92;;
67749;SDS011;54550;48.838;8.828;2022-12-18T00:41:00;60.90;;;21.50;;
67749;SDS011;54550;48.838;8.828;2022-12-18T00:43:26;56.47;;;23.00;;
67749;SDS011;54550;48.838;8.828;2022-12-18T00:45:52;67.80;;;24.70;;
67749;SDS011;54550;48.838;8.828;2022-12-18T00:48:17;51.33;;;21.17;;
67749;SDS011;54550;48.838;8.828;2022-12-18T00:50:43;65.43;;;25.40;;
67749;SDS011;54550;48.838;8.828;2022-12-18T00:53:09;49.73;;;19.43;;
67749;SDS011;54550;48.838;8.828;2022-12-18T00:55:34;57.03;;;20.43;;
67749;SDS011;54550;48.838;8.828;2022-12-18T00:58:00;51.30;;;19.90;;
67749;SDS011;54550;48.838;8.828;2022-12-18T01:00:25;50.80;;;21.83;;
67749;SDS011;54550;48.838;8.828;2022-12-18T01:02:51;77.67;;;22.57;;
67749;SDS011;54550;48.838;8.828;2022-12-18T01:05:16;45.00;;;18.70;;
67749;SDS011;54550;48.838;8.828;2022-12-18T01:07:42;56.90;;;22.13;;
67749;SDS011;54550;48.838;8.828;2022-12-18T01:10:08;61.43;;;23.63;;
67749;SDS011;54550;48.838;8.828;2022-12-18T01:12:36;56.95;;;25.38;;
67749;SDS011;54550;48.838;8.828;2022-12-18T01:15:02;52.20;;;24.93;;
67749;SDS011;54550;48.838;8.828;2022-12-18T01:17:29;53.00;;;21.17;;
67749;SDS011;54550;48.838;8.828;2022-12-18T01:19:55;47.40;;;20.53;;
67749;SDS011;54550;48.838;8.828;2022-12-18T01:22:20;60.07;;;23.60;;
67749;SDS011;54550;48.838;8.828;2022-12-18T01:24:46;47.60;;;20.97;;
67749;SDS011;54550;48.838;8.828;2022-12-18T01:27:12;72.20;;;24.07;;
67749;SDS011;54550;48.838;8.828;2022-12-18T01:29:37;61.23;;;23.13;;
67749;SDS011;54550;48.838;8.828;2022-12-18T01:32:03;62.80;;;23.63;;
67749;SDS011;54550;48.838;8.828;2022-12-18T01:34:28;47.97;;;21.20;;
67749;SDS011;54550;48.838;8.828;2022-12-18T01:36:54;68.90;;;23.90;;
67749;SDS011;54550;48.838;8.828;2022-12-18T01:39:19;60.80;;;21.33;;
67749;SDS011;54550;48.838;8.828;2022-12-18T01:41:45;53.80;;;20.87;;
67749;SDS011;54550;48.838;8.828;2022-12-18T01:47:18;52.10;;;23.42;;
67749;SDS011;54550;48.838;8.828;2022-12-18T01:49:45;48.70;;;21.08;;
67749;SDS011;54550;48.838;8.828;2022-12-18T01:52:11;44.77;;;24.10;;
67749;SDS011;54550;48.838;8.828;2022-12-18T01:54:36;62.40;;;23.57;;
67749;SDS011;54550;48.838;8.828;2022-12-18T01:57:02;47.40;;;22.87;;
67749;SDS011;54550;48.838;8.828;2022-12-18T01:59:27;50.33;;;21.53;;
67749;SDS011;54550;48.838;8.828;2022-12-18T02:01:55;57.28;;;24.73;;
67749;SDS011;54550;48.838;8.828;2022-12-18T02:04:24;48.70;;;22.85;;
67749;SDS011;54550;48.838;8.828;2022-12-18T02:07:08;47.78;;;22.67;;
67749;SDS011;54550;48.838;8.828;2022-12-18T02:09:46;54.88;;;22.58;;
67749;SDS011;54550;48.838;8.828;2022-12-18T02:12:18;45.22;;;21.33;;
67749;SDS011;54550;48.838;8.828;2022-12-18T02:14:49;55.45;;;24.13;;
67749;SDS011;54550;48.838;8.828;2022-12-18T02:17:45;52.88;;;23.00;;
67749;SDS011;54550;48.838;8.828;2022-12-18T02:23:06;52.97;;;22.75;;
67749;SDS011;54550;48.838;8.828;2022-12-18T02:28:40;40.40;;;19.45;;
67749;SDS011;54550;48.838;8.828;2022-12-18T02:31:11;41.78;;;18.85;;
67749;SDS011;54550;48.838;8.828;2022-12-18T02:33:39;46.40;;;18.25;;
67749;SDS011;54550;48.838;8.828;2022-12-18T02:36:06;57.83;;;21.75;;
67749;SDS011;54550;48.838;8.828;2022-12-18T02:38:34;72.05;;;22.48;;
67749;SDS011;54550;48.838;8.828;2022-12-18T02:41:01;41.40;;;19.88;;
67749;SDS011;54550;48.838;8.828;2022-12-18T02:43:29;48.83;;;20.48;;
67749;SDS011;54550;48.838;8.828;2022-12-18T02:45:58;52.92;;;19.27;;
67749;SDS011;54550;48.838;8.828;2022-12-18T02:48:44;45.50;;;21.42;;
67749;SDS011;54550;48.838;8.828;2022-12-18T02:51:18;51.40;;;22.10;;
67749;SDS011;54550;48.838;8.828;2022-12-18T02:53:53;49.40;;;21.92;;
67749;SDS011;54550;48.838;8.828;2022-12-18T02:56:46;48.80;;;21.73;;
67749;SDS011;54550;48.838;8.828;2022-12-18T02:59:17;56.83;;;21.70;;
67749;SDS011;54550;48.838;8.828;2022-12-18T03:02:04;42.53;;;18.70;;
67749;SDS011;54550;48.838;8.828;2022-12-18T03:07:16;51.22;;;19.10;;
67749;SDS011;54550;48.838;8.828;2022-12-18T03:09:47;51.58;;;22.88;;
67749;SDS011;54550;48.838;8.828;2022-12-18T03:12:20;54.28;;;22.15;;
67749;SDS011;54550;48.838;8.828;2022-12-18T03:14:59;52.90;;;19.70;;
67749;SDS011;54550;48.838;8.828;2022-12-18T03:17:30;48.58;;;20.17;;
67749;SDS011;54550;48.838;8.828;2022-12-18T03:19:58;51.60;;;20.92;;
67749;SDS011;54550;48.838;8.828;2022-12-18T03:22:30;39.88;;;19.33;;
67749;SDS011;54550;48.838;8.828;2022-12-18T03:24:58;42.67;;;20.58;;
67749;SDS011;54550;48.838;8.828;2022-12-18T03:27:27;46.40;;;19.30;;
67749;SDS011;54550;48.838;8.828;2022-12-18T03:29:57;55.17;;;22.77;;
67749;SDS011;54550;48.838;8.828;2022-12-18T03:32:33;44.55;;;20.70;;
67749;SDS011;54550;48.838;8.828;2022-12-18T03:35:16;51.08;;;21.17;;
67749;SDS011;54550;48.838;8.828;2022-12-18T03:37:46;37.67;;;17.27;;
67749;SDS011;54550;48.838;8.828;2022-12-18T03:40:12;65.40;;;20.73;;
67749;SDS011;54550;48.838;8.828;2022-12-18T03:42:51;46.33;;;20.90;;
67749;SDS011;54550;48.838;8.828;2022-12-18T03:45:34;47.70;;;20.23;;
67749;SDS011;54550;48.838;8.828;2022-12-18T03:48:13;48.33;;;21.00;;
67749;SDS011;54550;48.838;8.828;2022-12-18T03:51:01;58.80;;;23.33;;
67749;SDS011;54550;48.838;8.828;2022-12-18T03:56:33;56.38;;;21.25;;
67749;SDS011;54550;48.838;8.828;2022-12-18T03:59:03;37.78;;;18.02;;
67749;SDS011;54550;48.838;8.828;2022-12-18T04:01:35;44.53;;;19.45;;
67749;SDS011;54550;48.838;8.828;2022-12-18T04:04:05;47.75;;;18.73;;
67749;SDS011;54550;48.838;8.828;2022-12-18T04:06:33;57.53;;;24.23;;
67749;SDS011;54550;48.838;8.828;2022-12-18T04:08:59;40.70;;;19.08;;
67749;SDS011;54550;48.838;8.828;2022-12-18T04:11:25;50.78;;;20.30;;
67749;SDS011;54550;48.838;8.828;2022-12-18T04:13:54;39.70;;;17.33;;
67749;SDS011;54550;48.838;8.828;2022-12-18T04:16:21;44.75;;;19.30;;
67749;SDS011;54550;48.838;8.828;2022-12-18T04:18:46;40.97;;;19.97;;
67749;SDS011;54550;48.838;8.828;2022-12-18T04:21:12;52.67;;;18.27;;
67749;SDS011;54550;48.838;8.828;2022-12-18T04:23:37;46.47;;;18.80;;
67749;SDS011;54550;48.838;8.828;2022-12-18T04:26:03;56.43;;;19.90;;
67749;SDS011;54550;48.838;8.828;2022-12-18T04:28:29;38.27;;;18.00;;
67749;SDS011;54550;48.838;8.828;2022-12-18T04:30:54;37.17;;;18.17;;
67749;SDS011;54550;48.838;8.828;2022-12-18T04:33:20;41.30;;;17.30;;
67749;SDS011;54550;48.838;8.828;2022-12-18T04:35:45;39.57;;;18.33;;
67749;SDS011;54550;48.838;8.828;2022-12-18T04:38:11;46.53;;;19.57;;
67749;SDS011;54550;48.838;8.828;2022-12-18T04:40:37;46.27;;;19.33;;
67749;SDS011;54550;48.838;8.828;2022-12-18T04:43:03;36.80;;;18.95;;
67749;SDS011;54550;48.838;8.828;2022-12-18T04:45:29;45.97;;;18.17;;
67749;SDS011;54550;48.838;8.828;2022-12-18T04:47:57;44.08;;;18.92;;
67749;SDS011;54550;48.838;8.828;2022-12-18T04:50:23;47.38;;;17.27;;
67749;SDS011;54550;48.838;8.828;2022-12-18T04:52:49;36.75;;;16.58;;
67749;SDS011;54550;48.838;8.828;2022-12-18T04:55:14;30.67;;;15.70;;
67749;SDS011;54550;48.838;8.828;2022-12-18T04:57:40;37.47;;;16.80;;
67749;SDS011;54550;48.838;8.828;2022-12-18T05:00:06;47.17;;;17.87;;
67749;SDS011;54550;48.838;8.828;2022-12-18T05:02:32;49.25;;;15.50;;
67749;SDS011;54550;48.838;8.828;2022-12-18T05:04:57;40.77;;;16.60;;
67749;SDS011;54550;48.838;8.828;2022-12-18T05:07:23;34.60;;;16.03;;
67749;SDS011;54550;48.838;8.828;2022-12-18T05:09:49;36.85;;;18.10;;
67749;SDS011;54550;48.838;8.828;2022-12-18T05:12:14;37.73;;;16.67;;
67749;SDS011;54550;48.838;8.828;2022-12-18T05:14:40;29.73;;;15.47;;
67749;SDS011;54550;48.838;8.828;2022-12-18T05:17:06;46.43;;;18.80;;
67749;SDS011;54550;48.838;8.828;2022-12-18T05:19:31;32.17;;;14.03;;
67749;SDS011;54550;48.838;8.828;2022-12-18T05:21:57;29.53;;;11.83;;
67749;SDS011;54550;48.838;8.828;2022-12-18T05:24:23;38.23;;;14.50;;
67749;SDS011;54550;48.838;8.828;2022-12-18T05:26:48;30.27;;;15.50;;
67749;SDS011;54550;48.838;8.828;2022-12-18T05:29:14;38.37;;;16.53;;
67749;SDS011;54550;48.838;8.828;2022-12-18T05:31:39;38.90;;;17.47;;
67749;SDS011;54550;48.838;8.828;2022-12-18T05:34:05;43.13;;;17.43;;
67749;SDS011;54550;48.838;8.828;2022-12-18T05:36:31;27.83;;;13.70;;
67749;SDS011;54550;48.838;8.828;2022-12-18T05:38:56;30.73;;;14.07;;
67749;SDS011;54550;48.838;8.828;2022-12-18T05:41:22;28.80;;;14.30;;
67749;SDS011;54550;48.838;8.828;2022-12-18T05:43:47;34.37;;;14.37;;
67749;SDS011;54550;48.838;8.828;2022-12-18T05:46:16;34.50;;;13.87;;
67749;SDS011;54550;48.838;8.828;2022-12-18T05:48:43;37.60;;;17.10;;
67749;SDS011;54550;48.838;8.828;2022-12-18T05:51:10;41.60;;;17.27;;
67749;SDS011;54550;48.838;8.828;2022-12-18T05:53:41;39.28;;;18.23;;
67749;SDS011;54550;48.838;8.828;2022-12-18T05:56:08;42.30;;;18.38;;
67749;SDS011;54550;48.838;8.828;2022-12-18T05:58:36;35.53;;;15.35;;
67749;SDS011;54550;48.838;8.828;2022-12-18T06:01:06;46.65;;;15.70;;
67749;SDS011;54550;48.838;8.828;2022-12-18T06:03:32;40.42;;;16.23;;
67749;SDS011;54550;48.838;8.828;2022-12-18T06:05:57;39.07;;;16.27;;
67749;SDS011;54550;48.838;8.828;2022-12-18T06:08:23;40.07;;;15.73;;
67749;SDS011;54550;48.838;8.828;2022-12-18T06:10:49;32.37;;;14.50;;
67749;SDS011;54550;48.838;8.828;2022-12-18T06:13:16;41.10;;;14.35;;
67749;SDS011;54550;48.838;8.828;2022-12-18T06:15:42;35.50;;;16.60;;
67749;SDS011;54550;48.838;8.828;2022-12-18T06:18:07;47.00;;;20.50;;
67749;SDS011;54550;48.838;8.828;2022-12-18T06:20:33;51.93;;;15.40;;
67749;SDS011;54550;48.838;8.828;2022-12-18T06:23:01;55.00;;;20.45;;
67749;SDS011;54550;48.838;8.828;2022-12-18T06:25:26;57.73;;;17.90;;
67749;SDS011;54550;48.838;8.828;2022-12-18T06:27:52;47.57;;;15.60;;
67749;SDS011;54550;48.838;8.828;2022-12-18T06:30:18;47.23;;;17.63;;
67749;SDS011;54550;48.838;8.828;2022-12-18T06:32:43;46.57;;;18.50;;
67749;SDS011;54550;48.838;8.828;2022-12-18T06:35:09;46.10;;;21.97;;
67749;SDS011;54550;48.838;8.828;2022-12-18T06:37:35;62.40;;;20.87;;
67749;SDS011;54550;48.838;8.828;2022-12-18T06:40:02;42.85;;;14.98;;
67749;SDS011;54550;48.838;8.828;2022-12-18T06:42:28;56.17;;;19.80;;
67749;SDS011;54550;48.838;8.828;2022-12-18T06:44:54;53.45;;;18.88;;
67749;SDS011;54550;48.838;8.828;2022-12-18T06:47:19;42.20;;;17.10;;
67749;SDS011;54550;48.838;8.828;2022-12-18T06:49:45;54.43;;;18.60;;
67749;SDS011;54550;48.838;8.828;2022-12-18T06:52:10;48.87;;;19.80;;
67749;SDS011;54550;48.838;8.828;2022-12-18T06:54:36;51.07;;;16.93;;
67749;SDS011;54550;48.838;8.828;2022-12-18T06:57:02;61.07;;;20.13;;
67749;SDS011;54550;48.838;8.828;2022-12-18T06:59:27;52.73;;;23.03;;
67749;SDS011;54550;48.838;8.828;2022-12-18T07:01:53;66.03;;;25.20;;
67749;SDS011;54550;48.838;8.828;2022-12-18T07:04:18;71.33;;;24.10;;
67749;SDS011;54550;48.838;8.828;2022-12-18T07:06:44;64.77;;;23.43;;
67749;SDS011;54550;48.838;8.828;2022-12-18T07:09:09;63.63;;;18.47;;
67749;SDS011;54550;48.838;8.828;2022-12-18T07:11:35;53.27;;;18.47;;
67749;SDS011;54550;48.838;8.828;2022-12-18T07:14:00;64.23;;;21.67;;
67749;SDS011;54550;48.838;8.828;2022-12-18T07:16:26;56.10;;;21.20;;
67749;SDS011;54550;48.838;8.828;2022-12-18T07:18:53;50.90;;;20.25;;
67749;SDS011;54550;48.838;8.828;2022-12-18T07:21:20;56.67;;;22.50;;
67749;SDS011;54550;48.838;8.828;2022-12-18T07:23:46;51.95;;;19.23;;
67749;SDS011;54550;48.838;8.828;2022-12-18T07:26:13;54.42;;;21.73;;
67749;SDS011;54550;48.838;8.828;2022-12-18T07:28:40;46.53;;;18.38;;
67749;SDS011;54550;48.838;8.828;2022-12-18T07:31:07;62.13;;;22.95;;
67749;SDS011;54550;48.838;8.828;2022-12-18T07:33:34;54.70;;;19.95;;
67749;SDS011;54550;48.838;8.828;2022-12-18T07:36:01;66.97;;;20.50;;
67749;SDS011;54550;48.838;8.828;2022-12-18T07:38:28;45.53;;;19.23;;
67749;SDS011;54550;48.838;8.828;2022-12-18T07:40:54;59.77;;;21.57;;
67749;SDS011;54550;48.838;8.828;2022-12-18T07:43:24;59.92;;;20.63;;
67749;SDS011;54550;48.838;8.828;2022-12-18T07:45:50;58.50;;;20.60;;
67749;SDS011;54550;48.838;8.828;2022-12-18T07:48:15;52.40;;;21.20;;
67749;SDS011;54550;48.838;8.828;2022-12-18T07:50:41;53.57;;;21.57;;
67749;SDS011;54550;48.838;8.828;2022-12-18T07:53:06;36.80;;;15.03;;
67749;SDS011;54550;48.838;8.828;2022-12-18T07:55:32;65.10;;;22.77;;
67749;SDS011;54550;48.838;8.828;2022-12-18T07:58:00;61.07;;;22.00;;
67749;SDS011;54550;48.838;8.828;2022-12-18T08:00:27;66.32;;;23.13;;
67749;SDS011;54550;48.838;8.828;2022-12-18T08:02:52;60.63;;;21.63;;
67749;SDS011;54550;48.838;8.828;2022-12-18T08:05:18;47.60;;;19.60;;
67749;SDS011;54550;48.838;8.828;2022-12-18T08:07:45;59.72;;;23.20;;
67749;SDS011;54550;48.838;8.828;2022-12-18T08:10:11;56.53;;;24.80;;
67749;SDS011;54550;48.838;8.828;2022-12-18T08:12:36;64.93;;;24.47;;
67749;SDS011;54550;48.838;8.828;2022-12-18T08:15:02;60.87;;;22.43;;
67749;SDS011;54550;48.838;8.828;2022-12-18T08:17:28;63.90;;;22.60;;
67749;SDS011;54550;48.838;8.828;2022-12-18T08:19:53;81.17;;;24.37;;
67749;SDS011;54550;48.838;8.828;2022-12-18T08:22:19;63.27;;;23.10;;
67749;SDS011;54550;48.838;8.828;2022-12-18T08:24:44;70.17;;;24.93;;
67749;SDS011;54550;48.838;8.828;2022-12-18T08:27:10;73.00;;;23.30;;
67749;SDS011;54550;48.838;8.828;2022-12-18T08:29:36;61.20;;;20.73;;
67749;SDS011;54550;48.838;8.828;2022-12-18T08:32:01;62.50;;;22.00;;
67749;SDS011;54550;48.838;8.828;2022-12-18T08:34:27;60.17;;;22.80;;
67749;SDS011;54550;48.838;8.828;2022-12-18T08:36:53;57.58;;;25.63;;
67749;SDS011;54550;48.838;8.828;2022-12-18T08:39:18;49.10;;;21.33;;
67749;SDS011;54550;48.838;8.828;2022-12-18T08:41:44;54.37;;;20.20;;
67749;SDS011;54550;48.838;8.828;2022-12-18T08:44:29;68.95;;;25.65;;
67749;SDS011;54550;48.838;8.828;2022-12-18T08:47:07;82.07;;;26.13;;
67749;SDS011;54550;48.838;8.828;2022-12-18T08:49:33;54.92;;;20.95;;
67749;SDS011;54550;48.838;8.828;2022-12-18T08:51:59;60.92;;;24.00;;
67749;SDS011;54550;48.838;8.828;2022-12-18T08:54:25;86.37;;;32.70;;
67749;SDS011;54550;48.838;8.828;2022-12-18T08:56:51;102.73;;;36.23;;
67749;SDS011;54550;48.838;8.828;2022-12-18T08:59:17;81.27;;;29.20;;
67749;SDS011;54550;48.838;8.828;2022-12-18T09:01:43;79.50;;;26.35;;
67749;SDS011;54550;48.838;8.828;2022-12-18T09:04:09;73.00;;;28.07;;
67749;SDS011;54550;48.838;8.828;2022-12-18T09:06:35;78.10;;;28.17;;
67749;SDS011;54550;48.838;8.828;2022-12-18T09:09:01;79.22;;;29.05;;
67749;SDS011;54550;48.838;8.828;2022-12-18T09:11:27;67.55;;;27.27;;
67749;SDS011;54550;48.838;8.828;2022-12-18T09:13:54;64.78;;;24.17;;
67749;SDS011;54550;48.838;8.828;2022-12-18T09:16:20;61.40;;;26.52;;
67749;SDS011;54550;48.838;8.828;2022-12-18T09:18:47;65.95;;;25.55;;
67749;SDS011;54550;48.838;8.828;2022-12-18T09:21:13;54.50;;;25.43;;
67749;SDS011;54550;48.838;8.828;2022-12-18T09:23:43;65.90;;;29.25;;
67749;SDS011;54550;48.838;8.828;2022-12-18T09:26:14;69.50;;;30.40;;
67749;SDS011;54550;48.838;8.828;2022-12-18T09:28:39;68.67;;;26.50;;
67749;SDS011;54550;48.838;8.828;2022-12-18T09:31:06;62.53;;;24.80;;
67749;SDS011;54550;48.838;8.828;2022-12-18T09:33:33;61.85;;;21.98;;
67749;SDS011;54550;48.838;8.828;2022-12-18T09:36:02;62.42;;;23.52;;
67749;SDS011;54550;48.838;8.828;2022-12-18T09:38:29;60.63;;;24.10;;
67749;SDS011;54550;48.838;8.828;2022-12-18T09:40:57;53.88;;;23.05;;
67749;SDS011;54550;48.838;8.828;2022-12-18T09:43:45;56.22;;;24.65;;
67749;SDS011;54550;48.838;8.828;2022-12-18T09:46:25;54.28;;;24.00;;
67749;SDS011;54550;48.838;8.828;2022-12-18T09:48:59;54.67;;;23.67;;
67749;SDS011;54550;48.838;8.828;2022-12-18T09:52:15;49.00;;;21.65;;
67749;SDS011;54550;48.838;8.828;2022-12-18T09:54:23;53.35;;;23.48;;
67749;SDS011;54550;48.838;8.828;2022-12-18T09:56:55;55.45;;;25.67;;
67749;SDS011;54550;48.838;8.828;2022-12-18T09:59:24;47.33;;;23.37;;
67749;SDS011;54550;48.838;8.828;2022-12-18T10:01:52;47.30;;;23.23;;
67749;SDS011;54550;48.838;8.828;2022-12-18T10:04:18;55.40;;;25.10;;
67749;SDS011;54550;48.838;8.828;2022-12-18T10:09:27;41.33;;;17.73;;
67749;SDS011;54550;48.838;8.828;2022-12-18T10:12:02;45.88;;;21.92;;
67749;SDS011;54550;48.838;8.828;2022-12-18T10:14:41;49.42;;;22.92;;
67749;SDS011;54550;48.838;8.828;2022-12-18T10:20:10;54.08;;;23.90;;
67749;SDS011;54550;48.838;8.828;2022-12-18T10:25:52;46.53;;;21.77;;
67749;SDS011;54550;48.838;8.828;2022-12-18T10:28:33;45.20;;;19.73;;
67749;SDS011;54550;48.838;8.828;2022-12-18T10:31:07;58.58;;;23.88;;
67749;SDS011;54550;48.838;8.828;2022-12-18T10:33:45;37.85;;;20.05;;
67749;SDS011;54550;48.838;8.828;2022-12-18T10:36:11;38.17;;;19.47;;
67749;SDS011;54550;48.838;8.828;2022-12-18T10:38:37;50.23;;;22.87;;
67749;SDS011;54550;48.838;8.828;2022-12-18T10:44:11;39.50;;;18.88;;
67749;SDS011;54550;48.838;8.828;2022-12-18T10:46:41;40.97;;;19.48;;
67749;SDS011;54550;48.838;8.828;2022-12-18T10:49:18;41.70;;;19.27;;
67749;SDS011;54550;48.838;8.828;2022-12-18T10:51:46;41.60;;;20.35;;
67749;SDS011;54550;48.838;8.828;2022-12-18T10:54:19;48.42;;;20.95;;
67749;SDS011;54550;48.838;8.828;2022-12-18T10:56:47;39.40;;;18.50;;
67749;SDS011;54550;48.838;8.828;2022-12-18T10:59:14;43.83;;;19.05;;
67749;SDS011;54550;48.838;8.828;2022-12-18T11:07:04;46.28;;;21.10;;
67749;SDS011;54550;48.838;8.828;2022-12-18T11:09:32;39.75;;;19.52;;
67749;SDS011;54550;48.838;8.828;2022-12-18T11:12:14;41.20;;;19.13;;
67749;SDS011;54550;48.838;8.828;2022-12-18T11:14:50;41.22;;;20.48;;
67749;SDS011;54550;48.838;8.828;2022-12-18T11:17:18;39.85;;;19.20;;
67749;SDS011;54550;48.838;8.828;2022-12-18T11:19:51;50.85;;;19.58;;
67749;SDS011;54550;48.838;8.828;2022-12-18T11:22:25;49.53;;;19.83;;
67749;SDS011;54550;48.838;8.828;2022-12-18T11:25:04;53.58;;;22.60;;
67749;SDS011;54550;48.838;8.828;2022-12-18T11:27:36;46.40;;;19.95;;
67749;SDS011;54550;48.838;8.828;2022-12-18T11:30:07;48.05;;;21.92;;
67749;SDS011;54550;48.838;8.828;2022-12-18T11:32:52;39.65;;;20.17;;
67749;SDS011;54550;48.838;8.828;2022-12-18T11:38:17;50.30;;;20.65;;
67749;SDS011;54550;48.838;8.828;2022-12-18T11:40:50;50.55;;;20.73;;
67749;SDS011;54550;48.838;8.828;2022-12-18T11:43:35;45.50;;;22.00;;
67749;SDS011;54550;48.838;8.828;2022-12-18T11:46:14;45.63;;;22.00;;
67749;SDS011;54550;48.838;8.828;2022-12-18T11:48:53;49.45;;;23.63;;
67749;SDS011;54550;48.838;8.828;2022-12-18T11:51:45;45.53;;;22.60;;
67749;SDS011;54550;48.838;8.828;2022-12-18T11:54:16;54.58;;;24.13;;
67749;SDS011;54550;48.838;8.828;2022-12-18T11:59:38;54.15;;;23.85;;
67749;SDS011;54550;48.838;8.828;2022-12-18T12:07:31;51.22;;;24.60;;
67749;SDS011;54550;48.838;8.828;2022-12-18T12:10:22;52.20;;;22.75;;
67749;SDS011;54550;48.838;8.828;2022-12-18T12:16:04;52.90;;;20.60;;
67749;SDS011;54550;48.838;8.828;2022-12-18T12:21:42;58.00;;;22.67;;
67749;SDS011;54550;48.838;8.828;2022-12-18T12:24:31;53.75;;;22.95;;
67749;SDS011;54550;48.838;8.828;2022-12-18T12:27:30;51.05;;;24.45;;
67749;SDS011;54550;48.838;8.828;2022-12-18T12:38:22;54.58;;;24.15;;
67749;SDS011;54550;48.838;8.828;2022-12-18T12:40:54;52.42;;;24.00;;
67749;SDS011;54550;48.838;8.828;2022-12-18T12:43:26;52.90;;;22.42;;
67749;SDS011;54550;48.838;8.828;2022-12-18T12:46:03;51.97;;;23.23;;
67749;SDS011;54550;48.838;8.828;2022-12-18T12:51:02;60.97;;;24.80;;
67749;SDS011;54550;48.838;8.828;2022-12-18T12:53:36;51.40;;;24.65;;
67749;SDS011;54550;48.838;8.828;2022-12-18T12:56:04;50.75;;;22.35;;
67749;SDS011;54550;48.838;8.828;2022-12-18T12:58:47;46.97;;;22.08;;
67749;SDS011;54550;48.838;8.828;2022-12-18T13:01:18;55.42;;;24.95;;
67749;SDS011;54550;48.838;8.828;2022-12-18T13:09:16;61.03;;;23.83;;
67749;SDS011;54550;48.838;8.828;2022-12-18T13:11:43;56.27;;;24.87;;
67749;SDS011;54550;48.838;8.828;2022-12-18T13:14:36;52.13;;;22.77;;
67749;SDS011;54550;48.838;8.828;2022-12-18T13:19:48;59.42;;;26.75;;
67749;SDS011;54550;48.838;8.828;2022-12-18T13:23:17;55.85;;;24.73;;
67749;SDS011;54550;48.838;8.828;2022-12-18T13:25:30;55.72;;;23.92;;
67749;SDS011;54550;48.838;8.828;2022-12-18T13:28:06;59.75;;;24.00;;
67749;SDS011;54550;48.838;8.828;2022-12-18T13:36:04;53.15;;;23.75;;
67749;SDS011;54550;48.838;8.828;2022-12-18T13:38:35;49.10;;;22.73;;
67749;SDS011;54550;48.838;8.828;2022-12-18T13:41:04;48.88;;;24.45;;
67749;SDS011;54550;48.838;8.828;2022-12-18T13:43:43;49.50;;;24.35;;
67749;SDS011;54550;48.838;8.828;2022-12-18T13:46:23;48.92;;;23.75;;
67749;SDS011;54550;48.838;8.828;2022-12-18T13:51:17;47.17;;;22.80;;
67749;SDS011;54550;48.838;8.828;2022-12-18T13:53:47;52.85;;;21.65;;
67749;SDS011;54550;48.838;8.828;2022-12-18T13:56:21;57.65;;;24.70;;
67749;SDS011;54550;48.838;8.828;2022-12-18T14:01:35;51.97;;;23.08;;
67749;SDS011;54550;48.838;8.828;2022-12-18T14:06:46;62.38;;;24.02;;
67749;SDS011;54550;48.838;8.828;2022-12-18T14:09:15;64.72;;;26.13;;
67749;SDS011;54550;48.838;8.828;2022-12-18T14:11:48;54.90;;;20.85;;
67749;SDS011;54550;48.838;8.828;2022-12-18T14:14:15;53.80;;;24.67;;
67749;SDS011;54550;48.838;8.828;2022-12-18T14:16:42;55.60;;;23.90;;
67749;SDS011;54550;48.838;8.828;2022-12-18T14:19:12;61.93;;;23.80;;
67749;SDS011;54550;48.838;8.828;2022-12-18T14:21:40;49.55;;;23.50;;
67749;SDS011;54550;48.838;8.828;2022-12-18T14:24:16;55.55;;;23.35;;
67749;SDS011;54550;48.838;8.828;2022-12-18T14:26:44;61.55;;;26.20;;
67749;SDS011;54550;48.838;8.828;2022-12-18T14:29:20;55.77;;;23.60;;
67749;SDS011;54550;48.838;8.828;2022-12-18T14:32:04;61.90;;;24.83;;
67749;SDS011;54550;48.838;8.828;2022-12-18T14:34:30;58.90;;;22.80;;
67749;SDS011;54550;48.838;8.828;2022-12-18T14:36:55;54.80;;;22.83;;
67749;SDS011;54550;48.838;8.828;2022-12-18T14:39:21;56.20;;;23.27;;
67749;SDS011;54550;48.838;8.828;2022-12-18T14:41:48;48.42;;;22.00;;
67749;SDS011;54550;48.838;8.828;2022-12-18T14:44:14;68.40;;;25.60;;
67749;SDS011;54550;48.838;8.828;2022-12-18T14:46:41;70.70;;;28.17;;
67749;SDS011;54550;48.838;8.828;2022-12-18T14:49:25;71.45;;;27.38;;
67749;SDS011;54550;48.838;8.828;2022-12-18T14:51:56;65.78;;;24.58;;
67749;SDS011;54550;48.838;8.828;2022-12-18T14:54:27;62.85;;;24.50;;
67749;SDS011;54550;48.838;8.828;2022-12-18T14:59:24;71.35;;;26.58;;
67749;SDS011;54550;48.838;8.828;2022-12-18T15:05:04;70.35;;;27.75;;
67749;SDS011;54550;48.838;8.828;2022-12-18T15:07:39;52.80;;;23.42;;
67749;SDS011;54550;48.838;8.828;2022-12-18T15:12:43;63.42;;;23.98;;
67749;SDS011;54550;48.838;8.828;2022-12-18T15:18:00;69.85;;;28.20;;
67749;SDS011;54550;48.838;8.828;2022-12-18T15:20:54;65.22;;;27.58;;
67749;SDS011;54550;48.838;8.828;2022-12-18T15:23:28;105.63;;;41.05;;
67749;SDS011;54550;48.838;8.828;2022-12-18T15:26:03;68.28;;;26.77;;
67749;SDS011;54550;48.838;8.828;2022-12-18T15:33:41;76.68;;;31.15;;
67749;SDS011;54550;48.838;8.828;2022-12-18T15:36:13;64.72;;;28.63;;
67749;SDS011;54550;48.838;8.828;2022-12-18T15:38:40;75.13;;;28.88;;
67749;SDS011;54550;48.838;8.828;2022-12-18T15:41:10;67.60;;;29.03;;
67749;SDS011;54550;48.838;8.828;2022-12-18T15:43:38;85.97;;;33.15;;
67749;SDS011;54550;48.838;8.828;2022-12-18T15:46:05;109.30;;;35.83;;
67749;SDS011;54550;48.838;8.828;2022-12-18T15:48:34;83.47;;;31.25;;
67749;SDS011;54550;48.838;8.828;2022-12-18T15:51:00;75.80;;;28.33;;
67749;SDS011;54550;48.838;8.828;2022-12-18T15:53:30;84.57;;;28.70;;
67749;SDS011;54550;48.838;8.828;2022-12-18T15:55:58;83.10;;;28.48;;
67749;SDS011;54550;48.838;8.828;2022-12-18T15:58:42;69.03;;;26.73;;
67749;SDS011;54550;48.838;8.828;2022-12-18T16:01:08;60.10;;;26.47;;
67749;SDS011;54550;48.838;8.828;2022-12-18T16:03:35;78.57;;;27.40;;
67749;SDS011;54550;48.838;8.828;2022-12-18T16:06:02;45.63;;;17.07;;
67749;SDS011;54550;48.838;8.828;2022-12-18T16:08:30;106.60;;;39.67;;
67749;SDS011;54550;48.838;8.828;2022-12-18T16:10:56;90.70;;;34.67;;
67749;SDS011;54550;48.838;8.828;2022-12-18T16:13:22;72.25;;;28.30;;